createdAt,value
2018-01-13T00:01:05.592Z,105.40
2018-01-13T00:03:33.503Z,114.13
2018-01-13T00:06:01.380Z,87.47
2018-01-13T00:08:29.269Z,96.43
2018-01-13T00:10:57.137Z,108.37
2018-01-13T00:13:25.087Z,100.23
2018-01-13T00:15:52.990Z,106.10
2018-01-13T00:18:20.883Z,86.93
2018-01-13T00:20:48.785Z,92.67
2018-01-13T00:23:16.625Z,99.33
2018-01-13T00:25:44.468Z,68.70
2018-01-13T00:28:12.351Z,85.03
2018-01-13T00:30:40.232Z,89.33
2018-01-13T00:33:08.091Z,96.50
2018-01-13T00:35:36.073Z,104.17
2018-01-13T00:38:03.917Z,84.13
2018-01-13T00:40:31.776Z,93.70
2018-01-13T00:42:59.635Z,88.50
2018-01-13T00:45:27.462Z,76.83
2018-01-13T00:47:55.360Z,98.13
2018-01-13T00:50:23.225Z,94.33
2018-01-13T00:52:51.120Z,90.60
2018-01-13T00:55:18.955Z,89.20
2018-01-13T00:57:46.812Z,94.63
2018-01-13T01:00:14.663Z,87.83
2018-01-13T01:02:42.513Z,86.63
2018-01-13T01:05:10.416Z,92.73
2018-01-13T01:07:38.263Z,98.27
2018-01-13T01:10:06.087Z,88.07
2018-01-13T01:12:33.985Z,99.73
2018-01-13T01:15:01.831Z,82.27
2018-01-13T01:17:29.672Z,83.13
2018-01-13T01:19:57.549Z,82.43
2018-01-13T01:22:25.436Z,83.40
2018-01-13T01:24:53.300Z,87.77
2018-01-13T01:27:21.183Z,89.67
2018-01-13T01:29:49.012Z,83.97
2018-01-13T01:32:16.932Z,82.87
2018-01-13T01:34:44.784Z,85.07
2018-01-13T01:37:12.623Z,85.90
2018-01-13T01:39:40.462Z,66.67
2018-01-13T01:42:08.428Z,83.83
2018-01-13T01:44:36.318Z,92.97
2018-01-13T01:47:04.132Z,82.27
2018-01-13T01:49:32.020Z,84.30
2018-01-13T01:51:59.864Z,74.27
2018-01-13T01:54:27.723Z,71.47
2018-01-13T01:56:55.587Z,91.33
2018-01-13T01:59:23.432Z,84.00
2018-01-13T02:01:51.268Z,84.83
2018-01-13T02:04:19.142Z,80.13
2018-01-13T02:06:47.003Z,91.10
2018-01-13T02:09:14.843Z,77.87
2018-01-13T02:11:42.707Z,86.63
2018-01-13T02:14:10.556Z,84.17
2018-01-13T02:16:38.388Z,91.70
2018-01-13T02:19:06.278Z,80.93
2018-01-13T02:21:35.112Z,86.37
2018-01-13T02:24:02.979Z,90.13
2018-01-13T02:26:30.868Z,90.03
2018-01-13T02:28:58.727Z,90.47
2018-01-13T02:31:26.566Z,79.50
2018-01-13T02:33:54.433Z,93.80
2018-01-13T02:36:22.280Z,90.27
2018-01-13T02:38:50.144Z,87.90
2018-01-13T02:41:18.005Z,74.27
2018-01-13T02:43:45.872Z,88.03
2018-01-13T02:46:13.714Z,93.50
2018-01-13T02:48:41.573Z,95.53
2018-01-13T02:51:09.425Z,90.80
2018-01-13T02:53:37.270Z,90.23
2018-01-13T02:56:05.136Z,90.10
2018-01-13T02:58:32.972Z,94.60
2018-01-13T03:01:00.800Z,93.10
2018-01-13T03:03:28.695Z,98.40
2018-01-13T03:05:56.516Z,82.03
2018-01-13T03:08:24.355Z,106.43
2018-01-13T03:10:52.218Z,91.73
2018-01-13T03:13:20.072Z,96.70
2018-01-13T03:15:47.922Z,98.93
2018-01-13T03:18:15.800Z,113.67
2018-01-13T03:20:43.636Z,95.93
2018-01-13T03:23:11.479Z,110.93
2018-01-13T03:25:39.415Z,85.07
2018-01-13T03:28:07.243Z,101.43
2018-01-13T03:30:35.092Z,87.33
2018-01-13T03:33:02.989Z,109.80
2018-01-13T03:35:30.823Z,95.67
2018-01-13T03:37:58.652Z,108.23
2018-01-13T03:40:26.519Z,101.57
2018-01-13T03:42:54.368Z,100.80
2018-01-13T03:45:22.208Z,93.97
2018-01-13T03:47:50.072Z,102.70
2018-01-13T03:50:17.916Z,92.23
2018-01-13T03:52:45.751Z,96.50
2018-01-13T03:55:13.619Z,89.97
2018-01-13T03:57:41.484Z,99.13
2018-01-13T04:00:09.341Z,113.70
2018-01-13T04:02:37.205Z,103.53
2018-01-13T04:05:05.056Z,73.67
2018-01-13T04:07:32.888Z,94.03
2018-01-13T04:10:00.760Z,97.50
2018-01-13T04:12:28.592Z,101.03
2018-01-13T04:14:56.438Z,100.23
2018-01-13T04:17:24.365Z,94.23
2018-01-13T04:19:52.209Z,105.47
2018-01-13T04:22:20.084Z,95.63
2018-01-13T04:24:47.943Z,97.70
2018-01-13T04:27:15.980Z,97.30
2018-01-13T04:29:43.835Z,84.40
2018-01-13T04:32:11.691Z,97.17
2018-01-13T04:34:39.549Z,81.43
2018-01-13T04:37:07.396Z,86.37
2018-01-13T04:39:35.254Z,83.30
2018-01-13T04:42:03.124Z,93.33
2018-01-13T04:44:30.951Z,92.87
2018-01-13T04:46:58.822Z,107.70
2018-01-13T04:49:26.658Z,92.60
2018-01-13T04:51:54.504Z,97.93
2018-01-13T04:54:22.361Z,73.40
2018-01-13T04:56:50.204Z,99.03
2018-01-13T04:59:18.032Z,72.90
2018-01-13T05:01:45.896Z,98.40
2018-01-13T05:04:13.731Z,91.37
2018-01-13T05:06:41.583Z,88.77
2018-01-13T05:09:09.487Z,92.97
2018-01-13T05:11:37.325Z,83.30
2018-01-13T05:14:05.167Z,77.37
2018-01-13T05:16:33.048Z,80.20
2018-01-13T05:19:00.905Z,78.77
2018-01-13T05:21:28.744Z,66.30
2018-01-13T05:23:56.607Z,56.53
2018-01-13T05:26:24.455Z,85.33
2018-01-13T05:28:52.399Z,76.87
2018-01-13T05:31:20.263Z,68.77
2018-01-13T05:33:48.903Z,70.87
2018-01-13T05:36:16.736Z,72.30
2018-01-13T05:38:44.623Z,77.00
2018-01-13T05:41:12.467Z,74.80
2018-01-13T05:43:40.319Z,67.20
2018-01-13T05:46:08.191Z,82.10
2018-01-13T05:48:36.064Z,80.13
2018-01-13T05:51:03.900Z,79.37
2018-01-13T05:53:31.751Z,74.13
2018-01-13T05:55:59.592Z,78.43
2018-01-13T05:58:27.426Z,72.10
2018-01-13T06:00:55.300Z,70.60
2018-01-13T06:03:23.139Z,74.17
2018-01-13T06:05:50.993Z,56.40
2018-01-13T06:08:18.862Z,80.70
2018-01-13T06:10:46.700Z,73.33
2018-01-13T06:13:14.569Z,64.20
2018-01-13T06:15:42.427Z,64.37
2018-01-13T06:18:10.261Z,56.77
2018-01-13T06:20:38.100Z,66.23
2018-01-13T06:23:05.979Z,66.17
2018-01-13T06:25:33.811Z,64.13
2018-01-13T06:28:01.676Z,63.23
2018-01-13T06:30:29.599Z,61.67
2018-01-13T06:32:57.436Z,71.20
2018-01-13T06:35:25.259Z,41.93
2018-01-13T06:37:53.116Z,53.43
2018-01-13T06:40:20.949Z,57.37
2018-01-13T06:42:48.793Z,64.67
2018-01-13T06:45:16.658Z,45.83
2018-01-13T06:47:44.503Z,63.97
2018-01-13T06:50:12.375Z,50.63
2018-01-13T06:52:40.274Z,64.90
2018-01-13T06:55:08.244Z,62.83
2018-01-13T06:57:36.074Z,55.20
2018-01-13T07:00:03.962Z,58.20
2018-01-13T07:02:31.797Z,54.00
2018-01-13T07:04:59.639Z,53.67
2018-01-13T07:07:27.644Z,48.23
2018-01-13T07:09:55.482Z,51.97
2018-01-13T07:12:23.667Z,51.13
2018-01-13T07:14:51.527Z,57.43
2018-01-13T07:17:19.372Z,48.17
2018-01-13T07:19:47.199Z,53.30
2018-01-13T07:22:15.096Z,57.07
2018-01-13T07:24:43.213Z,49.10
2018-01-13T07:27:11.045Z,49.60
2018-01-13T07:29:38.933Z,34.80
2018-01-13T07:32:06.808Z,35.43
2018-01-13T07:34:34.637Z,49.00
2018-01-13T07:37:02.580Z,49.73
2018-01-13T07:39:30.512Z,49.53
2018-01-13T07:41:58.349Z,46.90
2018-01-13T07:44:26.204Z,42.87
2018-01-13T07:46:54.064Z,49.73
2018-01-13T07:49:21.892Z,45.10
2018-01-13T07:51:49.753Z,45.30
2018-01-13T07:54:17.587Z,37.63
2018-01-13T07:56:45.469Z,44.20
2018-01-13T07:59:13.540Z,46.33
2018-01-13T08:01:41.392Z,32.60
2018-01-13T08:04:09.235Z,33.23
2018-01-13T08:06:37.232Z,32.67
2018-01-13T08:09:05.189Z,34.80
2018-01-13T08:11:33.039Z,20.93
2018-01-13T08:14:00.928Z,29.23
2018-01-13T08:16:28.833Z,36.80
2018-01-13T08:18:56.690Z,25.97
2018-01-13T08:21:24.549Z,35.27
2018-01-13T08:23:52.405Z,28.57
2018-01-13T08:26:20.245Z,26.17
2018-01-13T08:28:48.133Z,37.63
2018-01-13T08:31:16.004Z,35.00
2018-01-13T08:33:43.971Z,31.60
2018-01-13T08:36:11.847Z,32.33
2018-01-13T08:38:39.735Z,25.67
2018-01-13T08:41:07.587Z,33.77
2018-01-13T08:43:35.472Z,27.90
2018-01-13T08:46:03.364Z,24.90
2018-01-13T08:48:31.195Z,27.00
2018-01-13T08:50:59.061Z,23.53
2018-01-13T08:53:26.933Z,26.43
2018-01-13T08:55:54.882Z,33.13
2018-01-13T08:58:22.756Z,32.00
2018-01-13T09:00:50.660Z,21.00
2018-01-13T09:03:18.662Z,30.43
2018-01-13T09:05:46.580Z,24.77
2018-01-13T09:08:14.448Z,24.13
2018-01-13T09:10:42.478Z,25.70
2018-01-13T09:13:11.524Z,25.43
2018-01-13T09:15:40.672Z,27.97
2018-01-13T09:18:08.827Z,23.87
2018-01-13T09:20:38.904Z,31.47
2018-01-13T09:23:06.943Z,28.00
2018-01-13T09:25:34.931Z,27.70
2018-01-13T09:28:02.816Z,28.77
2018-01-13T09:30:30.678Z,25.40
2018-01-13T09:32:58.531Z,21.57
2018-01-13T09:35:26.531Z,27.37
2018-01-13T09:37:54.475Z,27.70
2018-01-13T09:40:22.304Z,19.33
2018-01-13T09:42:50.196Z,26.10
2018-01-13T09:45:18.106Z,32.27
2018-01-13T09:47:45.968Z,32.03
2018-01-13T09:50:13.871Z,26.67
2018-01-13T09:52:41.726Z,25.77
2018-01-13T09:55:09.612Z,27.20
2018-01-13T09:57:37.492Z,25.70
2018-01-13T10:00:05.727Z,32.47
2018-01-13T10:02:34.093Z,31.00
2018-01-13T10:05:02.230Z,26.90
2018-01-13T10:07:31.193Z,25.30
2018-01-13T10:09:59.565Z,25.87
2018-01-13T10:12:27.716Z,23.00
2018-01-13T10:14:55.832Z,28.17
2018-01-13T10:17:23.821Z,33.60
2018-01-13T10:19:51.844Z,28.57
2018-01-13T10:22:19.959Z,25.73
2018-01-13T10:24:48.065Z,26.53
2018-01-13T10:27:16.197Z,29.00
2018-01-13T10:29:44.182Z,23.00
2018-01-13T10:32:12.496Z,35.20
2018-01-13T10:34:40.396Z,15.47
2018-01-13T10:37:08.277Z,29.30
2018-01-13T10:39:36.128Z,28.97
2018-01-13T10:42:04.005Z,28.67
2018-01-13T10:44:31.849Z,29.83
2018-01-13T10:46:59.671Z,31.50
2018-01-13T10:49:27.549Z,21.40
2018-01-13T10:51:55.383Z,35.80
2018-01-13T10:54:23.260Z,26.63
2018-01-13T10:56:51.124Z,28.87
2018-01-13T10:59:18.968Z,31.23
2018-01-13T11:01:46.807Z,26.60
2018-01-13T11:04:14.960Z,31.60
2018-01-13T11:06:42.805Z,34.53
2018-01-13T11:09:10.724Z,28.77
2018-01-13T11:11:38.665Z,31.47
2018-01-13T11:14:06.583Z,36.77
2018-01-13T11:16:34.443Z,24.57
2018-01-13T11:19:02.326Z,35.80
2018-01-13T11:21:30.211Z,28.70
2018-01-13T11:23:58.092Z,27.53
2018-01-13T11:26:25.984Z,35.90
2018-01-13T11:28:53.830Z,24.13
2018-01-13T11:31:21.677Z,32.97
2018-01-13T11:33:49.552Z,26.10
2018-01-13T11:36:17.379Z,22.13
2018-01-13T11:38:45.273Z,29.90
2018-01-13T11:41:13.139Z,24.83
2018-01-13T11:43:41.020Z,28.37
2018-01-13T11:46:08.896Z,29.97
2018-01-13T11:48:36.776Z,28.93
2018-01-13T11:51:04.621Z,27.70
2018-01-13T11:53:32.465Z,21.23
2018-01-13T11:56:00.337Z,28.60
2018-01-13T11:58:28.211Z,23.57
2018-01-13T12:00:56.051Z,26.20
2018-01-13T12:03:28.104Z,26.20
2018-01-13T12:05:56.029Z,28.23
2018-01-13T12:08:23.852Z,25.03
2018-01-13T12:10:51.728Z,25.27
2018-01-13T12:13:19.899Z,24.33
2018-01-13T12:15:47.760Z,23.90
2018-01-13T12:18:15.619Z,27.90
2018-01-13T12:20:43.479Z,21.10
2018-01-13T12:23:11.328Z,30.13
2018-01-13T12:25:39.308Z,24.20
2018-01-13T12:28:07.145Z,29.87
2018-01-13T12:30:34.997Z,26.50
2018-01-13T12:33:02.861Z,29.83
2018-01-13T12:35:30.688Z,23.70
2018-01-13T12:37:58.555Z,33.00
2018-01-13T12:40:26.455Z,29.23
2018-01-13T12:42:54.348Z,25.50
2018-01-13T12:45:22.185Z,27.20
2018-01-13T12:47:50.069Z,27.13
2018-01-13T12:50:17.987Z,18.10
2018-01-13T12:52:45.844Z,25.43
2018-01-13T12:55:13.784Z,27.03
2018-01-13T12:57:41.750Z,16.73
2018-01-13T13:00:09.593Z,25.27
2018-01-13T13:02:37.465Z,27.87
2018-01-13T13:05:06.377Z,21.53
2018-01-13T13:07:34.210Z,24.07
2018-01-13T13:10:02.221Z,24.53
2018-01-13T13:12:30.828Z,19.10
2018-01-13T13:14:58.675Z,26.40
2018-01-13T13:17:27.579Z,24.23
2018-01-13T13:19:56.388Z,25.60
2018-01-13T13:22:24.272Z,25.30
2018-01-13T13:24:52.155Z,20.37
2018-01-13T13:27:20.005Z,17.97
2018-01-13T13:29:47.835Z,15.07
2018-01-13T13:32:15.715Z,23.60
2018-01-13T13:34:43.569Z,21.90
2018-01-13T13:37:13.069Z,30.13
2018-01-13T13:39:40.956Z,18.30
2018-01-13T13:42:08.896Z,23.23
2018-01-13T13:44:36.743Z,21.70
2018-01-13T13:47:04.684Z,18.30
2018-01-13T13:49:32.529Z,26.90
2018-01-13T13:52:00.355Z,18.50
2018-01-13T13:54:28.338Z,17.27
2018-01-13T13:56:56.245Z,18.30
2018-01-13T13:59:24.083Z,11.97
2018-01-13T14:01:52.222Z,14.43
2018-01-13T14:04:20.053Z,18.37
2018-01-13T14:06:47.883Z,18.73
2018-01-13T14:09:15.824Z,18.00
2018-01-13T14:11:43.684Z,14.63
2018-01-13T14:14:11.528Z,15.90
2018-01-13T14:16:39.424Z,12.20
2018-01-13T14:19:07.301Z,14.50
2018-01-13T14:21:35.190Z,12.00
2018-01-13T14:24:03.096Z,14.77
2018-01-13T14:26:30.958Z,13.73
2018-01-13T14:28:58.792Z,13.07
2018-01-13T14:31:26.669Z,14.40
2018-01-13T14:33:54.522Z,13.30
2018-01-13T14:36:22.392Z,19.20
2018-01-13T14:38:50.297Z,12.97
2018-01-13T14:41:18.159Z,14.13
2018-01-13T14:43:46.047Z,14.77
2018-01-13T14:46:14.048Z,13.50
2018-01-13T14:48:41.908Z,10.90
2018-01-13T14:51:09.758Z,13.40
2018-01-13T14:53:37.712Z,13.50
2018-01-13T14:56:05.584Z,16.73
2018-01-13T14:58:33.527Z,11.77
2018-01-13T15:01:01.407Z,14.00
2018-01-13T15:03:29.237Z,14.63
2018-01-13T15:05:57.139Z,19.53
2018-01-13T15:08:25.026Z,12.43
2018-01-13T15:10:52.878Z,15.67
2018-01-13T15:13:20.772Z,18.00
2018-01-13T15:15:48.635Z,16.33
2018-01-13T15:18:16.481Z,14.63
2018-01-13T15:20:44.316Z,14.93
2018-01-13T15:23:12.180Z,10.67
2018-01-13T15:25:40.046Z,10.57
2018-01-13T15:28:07.943Z,14.27
2018-01-13T15:30:35.805Z,15.20
2018-01-13T15:33:03.659Z,15.53
2018-01-13T15:35:31.496Z,14.33
2018-01-13T15:37:59.360Z,17.97
2018-01-13T15:40:27.196Z,15.90
2018-01-13T15:42:55.062Z,13.73
2018-01-13T15:45:23.113Z,13.83
2018-01-13T15:47:50.960Z,16.40
2018-01-13T15:50:18.813Z,16.17
2018-01-13T15:52:46.688Z,17.43
2018-01-13T15:55:14.576Z,14.57
2018-01-13T15:57:42.429Z,20.60
2018-01-13T16:00:10.306Z,15.50
2018-01-13T16:02:38.148Z,15.80
2018-01-13T16:05:06.007Z,17.60
2018-01-13T16:07:33.964Z,16.37
2018-01-13T16:10:01.848Z,19.73
2018-01-13T16:12:29.689Z,16.00
2018-01-13T16:14:57.595Z,13.90
2018-01-13T16:17:25.432Z,18.47
2018-01-13T16:19:53.301Z,14.30
2018-01-13T16:22:21.168Z,22.37
2018-01-13T16:24:49.231Z,21.30
2018-01-13T16:27:17.132Z,26.10
2018-01-13T16:29:45.001Z,25.07
2018-01-13T16:32:12.844Z,26.90
2018-01-13T16:34:40.704Z,32.70
2018-01-13T16:37:08.615Z,28.17
2018-01-13T16:39:36.507Z,24.13
2018-01-13T16:42:05.054Z,25.93
2018-01-13T16:44:34.052Z,26.03
2018-01-13T16:47:01.900Z,24.17
2018-01-13T16:49:29.779Z,22.53
2018-01-13T16:51:57.708Z,23.37
2018-01-13T16:54:25.589Z,26.20
2018-01-13T16:56:53.464Z,19.67
2018-01-13T16:59:21.374Z,25.00
2018-01-13T17:01:49.248Z,18.77
2018-01-13T17:04:17.068Z,26.50
2018-01-13T17:06:44.951Z,28.50
2018-01-13T17:09:12.875Z,26.33
2018-01-13T17:11:40.753Z,32.27
2018-01-13T17:14:08.675Z,29.50
2018-01-13T17:16:36.525Z,29.37
2018-01-13T17:19:04.394Z,28.13
2018-01-13T17:21:32.247Z,31.27
2018-01-13T17:24:00.096Z,30.20
2018-01-13T17:26:27.943Z,30.77
2018-01-13T17:28:55.852Z,24.60
2018-01-13T17:31:23.713Z,20.23
2018-01-13T17:33:51.708Z,18.50
2018-01-13T17:36:19.912Z,23.00
2018-01-13T17:38:49.732Z,20.23
2018-01-13T17:41:17.581Z,18.40
2018-01-13T17:43:45.520Z,22.77
2018-01-13T17:46:13.465Z,22.80
2018-01-13T17:48:41.367Z,19.77
2018-01-13T17:51:09.623Z,19.00
2018-01-13T17:53:37.292Z,19.00
2018-01-13T17:56:05.137Z,15.00
2018-01-13T17:58:33.016Z,17.97
2018-01-13T18:01:00.862Z,19.73
2018-01-13T18:03:29.445Z,21.00
2018-01-13T18:05:57.423Z,21.60
2018-01-13T18:08:25.336Z,18.50
2018-01-13T18:10:53.189Z,18.50
2018-01-13T18:13:21.068Z,18.63
2018-01-13T18:15:48.997Z,12.97
2018-01-13T18:18:16.868Z,10.63
2018-01-13T18:20:44.775Z,17.03
2018-01-13T18:23:12.636Z,13.03
2018-01-13T18:25:40.528Z,21.07
2018-01-13T18:28:08.378Z,18.13
2018-01-13T18:30:36.232Z,17.83
2018-01-13T18:33:05.091Z,16.73
2018-01-13T18:35:32.987Z,18.37
2018-01-13T18:38:00.908Z,15.63
2018-01-13T18:40:28.764Z,12.20
2018-01-13T18:42:56.653Z,17.50
2018-01-13T18:45:24.918Z,22.67
2018-01-13T18:47:53.184Z,18.73
2018-01-13T18:50:21.332Z,20.23
2018-01-13T18:52:49.402Z,11.63
2018-01-13T18:55:17.274Z,25.07
2018-01-13T18:57:45.183Z,19.93
2018-01-13T19:00:13.173Z,15.50
2018-01-13T19:02:42.432Z,20.17
2018-01-13T19:05:11.056Z,17.20
2018-01-13T19:07:40.796Z,22.00
2018-01-13T19:10:10.804Z,23.63
2018-01-13T19:12:40.033Z,19.37
2018-01-13T19:15:08.472Z,14.47
2018-01-13T19:17:36.403Z,16.87
2018-01-13T19:20:04.378Z,15.80
2018-01-13T19:22:32.203Z,19.00
2018-01-13T19:25:00.054Z,18.00
2018-01-13T19:27:27.949Z,19.77
2018-01-13T19:29:55.788Z,18.30
2018-01-13T19:32:24.963Z,16.50
2018-01-13T19:34:52.853Z,17.03
2018-01-13T19:37:20.696Z,22.43
2018-01-13T19:39:48.528Z,18.17
2018-01-13T19:42:17.131Z,18.77
2018-01-13T19:44:45.237Z,20.50
2018-01-13T19:47:13.113Z,18.93
2018-01-13T19:49:41.018Z,20.27
2018-01-13T19:52:09.065Z,20.40
2018-01-13T19:54:36.980Z,14.37
2018-01-13T19:57:05.218Z,20.90
2018-01-13T19:59:33.440Z,20.70
2018-01-13T20:02:01.284Z,15.07
2018-01-13T20:04:29.268Z,19.13
2018-01-13T20:06:57.124Z,18.33
2018-01-13T20:09:24.965Z,20.83
2018-01-13T20:11:52.837Z,19.43
2018-01-13T20:14:20.685Z,23.33
2018-01-13T20:16:48.576Z,19.57
2018-01-13T20:19:16.461Z,17.10
2018-01-13T20:21:44.321Z,25.77
2018-01-13T20:24:12.176Z,19.70
2018-01-13T20:26:40.081Z,17.27
2018-01-13T20:29:07.943Z,15.93
2018-01-13T20:31:35.784Z,11.23
2018-01-13T20:34:03.822Z,24.33
2018-01-13T20:36:31.744Z,23.33
2018-01-13T20:38:59.755Z,19.90
2018-01-13T20:41:29.672Z,18.70
2018-01-13T20:43:57.546Z,20.33
2018-01-13T20:46:25.421Z,23.77
2018-01-13T20:48:53.322Z,25.33
2018-01-13T20:51:21.164Z,24.73
2018-01-13T20:53:49.344Z,24.90
2018-01-13T20:56:17.248Z,23.93
2018-01-13T20:58:45.133Z,19.07
2018-01-13T21:01:12.960Z,25.70
2018-01-13T21:03:40.859Z,24.87
2018-01-13T21:06:08.736Z,23.00
2018-01-13T21:08:36.579Z,20.57
2018-01-13T21:11:04.457Z,19.07
2018-01-13T21:13:32.295Z,19.17
2018-01-13T21:16:00.140Z,15.27
2018-01-13T21:18:28.017Z,24.30
2018-01-13T21:20:55.873Z,22.10
2018-01-13T21:23:23.728Z,24.40
2018-01-13T21:25:51.820Z,22.17
2018-01-13T21:28:20.214Z,19.90
2018-01-13T21:30:48.077Z,20.87
2018-01-13T21:33:15.945Z,25.63
2018-01-13T21:35:43.782Z,22.90
2018-01-13T21:38:12.333Z,26.93
2018-01-13T21:40:40.264Z,26.43
2018-01-13T21:43:08.108Z,24.73
2018-01-13T21:45:35.971Z,29.97
2018-01-13T21:48:03.831Z,25.27
2018-01-13T21:50:31.708Z,21.93
2018-01-13T21:52:59.564Z,23.77
2018-01-13T21:55:27.433Z,20.70
2018-01-13T21:57:55.339Z,20.80
2018-01-13T22:00:23.175Z,29.33
2018-01-13T22:02:51.039Z,26.07
2018-01-13T22:05:18.882Z,25.13
2018-01-13T22:07:46.807Z,24.10
2018-01-13T22:10:14.707Z,20.23
2018-01-13T22:12:43.535Z,23.23
2018-01-13T22:15:11.399Z,20.63
2018-01-13T22:17:39.279Z,22.13
2018-01-13T22:20:07.124Z,27.80
2018-01-13T22:22:34.976Z,23.03
2018-01-13T22:25:02.851Z,25.70
2018-01-13T22:27:30.732Z,25.40
2018-01-13T22:29:59.668Z,27.63
2018-01-13T22:32:27.575Z,23.80
2018-01-13T22:34:55.440Z,25.20
2018-01-13T22:37:23.289Z,26.67
2018-01-13T22:39:51.171Z,21.13
2018-01-13T22:42:19.084Z,27.70
2018-01-13T22:44:48.048Z,28.40
2018-01-13T22:47:15.930Z,25.10
2018-01-13T22:49:43.755Z,26.50
2018-01-13T22:52:11.648Z,25.77
2018-01-13T22:54:39.683Z,25.33
2018-01-13T22:57:07.611Z,22.53
2018-01-13T22:59:35.641Z,24.50
2018-01-13T23:02:03.557Z,23.00
2018-01-13T23:04:31.384Z,27.60
2018-01-13T23:06:59.257Z,29.63
2018-01-13T23:09:27.168Z,26.67
2018-01-13T23:11:55.052Z,26.23
2018-01-13T23:14:22.908Z,34.73
2018-01-13T23:16:50.788Z,30.63
2018-01-13T23:19:18.641Z,20.47
2018-01-13T23:21:46.528Z,31.53
2018-01-13T23:24:14.408Z,23.53
2018-01-13T23:26:42.305Z,25.77
2018-01-13T23:29:10.171Z,27.73
2018-01-13T23:31:38.335Z,27.23
2018-01-13T23:34:06.232Z,24.47
2018-01-13T23:36:34.069Z,28.17
2018-01-13T23:39:01.943Z,29.57
2018-01-13T23:41:30.537Z,23.30
2018-01-13T23:43:58.396Z,34.03
2018-01-13T23:46:26.253Z,27.47
2018-01-13T23:48:54.087Z,26.70
2018-01-13T23:51:21.936Z,32.67
2018-01-13T23:53:49.807Z,22.70
2018-01-13T23:56:17.648Z,34.07
2018-01-13T23:58:45.504Z,28.60
